KFMN/FMN METAR and TAF weather

Enter ICAO airport designator
Station Type Date Time Source
KFMN METAR 2019/08/22 19:53 UTC NOAA

KFMN 221953Z 29010G17KT 10SM CLR 32/M01 A3004 RMK AO2 SLP097 T03221006


Station Type Date Time Source
KFMN Decoded METAR 2019/08/22 19:53 UTC NOAA

Station name not available
Aug 22, 2019 - 03:53 PM EDT / 2019.08.22 1953 UTC
Wind: from the WNW (290 degrees) at 12 MPH (10 KT) gusting to 20 MPH (17 KT):0
Visibility: 10 mile(s):0
Sky conditions: clear
Temperature: 90.0 F (32.2 C)
Dew Point: 30.9 F (-0.6 C)
Relative Humidity: 12%
Pressure (altimeter): 30.04 in. Hg (1017 hPa)
ob: KFMN 221953Z 29010G17KT 10SM CLR 32/M01 A3004 RMK AO2 SLP097 T03221006
cycle: 20

Station Type Date Time Source
KFMN TAF 2019/08/22 18:24 UTC NOAA

TAF KFMN 221722Z 2218/2318 09010KT P6SM FEW250
FM221900 24011KT P6SM SCT250
FM222200 27014G24KT P6SM SCT150
FM230200 30008KT P6SM SCT150
FM230700 VRB05KT P6SM SKC

Example: see airport list